sensor_id;sensor_type;location;lat;lon;timestamp;temperature;humidity
29207;DHT22;16247;50.840;4.382;2023-05-10T00:14:44;14.00;99.90
29207;DHT22;16247;50.840;4.382;2023-05-10T00:20:47;13.80;99.90
29207;DHT22;16247;50.840;4.382;2023-05-10T00:23:14;13.80;99.90
29207;DHT22;16247;50.840;4.382;2023-05-10T00:25:44;13.80;99.90
29207;DHT22;16247;50.840;4.382;2023-05-10T00:28:11;13.60;99.90
29207;DHT22;16247;50.840;4.382;2023-05-10T00:30:47;13.90;99.90
29207;DHT22;16247;50.840;4.382;2023-05-10T00:36:22;13.70;99.90
29207;DHT22;16247;50.840;4.382;2023-05-10T00:44:10;13.90;99.90
29207;DHT22;16247;50.840;4.382;2023-05-10T00:46:40;13.90;99.90
29207;DHT22;16247;50.840;4.382;2023-05-10T00:49:28;14.00;99.90
29207;DHT22;16247;50.840;4.382;2023-05-10T00:51:57;13.80;99.90
29207;DHT22;16247;50.840;4.382;2023-05-10T00:54:34;13.90;99.90
29207;DHT22;16247;50.840;4.382;2023-05-10T01:02:34;13.80;99.90
29207;DHT22;16247;50.840;4.382;2023-05-10T01:05:31;14.00;99.90
29207;DHT22;16247;50.840;4.382;2023-05-10T01:08:35;14.00;99.90
29207;DHT22;16247;50.840;4.382;2023-05-10T01:11:18;13.90;99.90
29207;DHT22;16247;50.840;4.382;2023-05-10T01:18:59;13.90;99.90
29207;DHT22;16247;50.840;4.382;2023-05-10T01:41:52;14.00;99.90
29207;DHT22;16247;50.840;4.382;2023-05-10T02:02:56;13.80;99.90
29207;DHT22;16247;50.840;4.382;2023-05-10T02:26:33;13.80;99.90
29207;DHT22;16247;50.840;4.382;2023-05-10T02:34:59;13.80;99.90
29207;DHT22;16247;50.840;4.382;2023-05-10T02:40:43;14.00;99.90
29207;DHT22;16247;50.840;4.382;2023-05-10T02:43:25;14.10;99.90
29207;DHT22;16247;50.840;4.382;2023-05-10T02:45:52;13.70;99.90
29207;DHT22;16247;50.840;4.382;2023-05-10T03:02:20;13.90;99.90
29207;DHT22;16247;50.840;4.382;2023-05-10T03:04:54;14.00;99.90
29207;DHT22;16247;50.840;4.382;2023-05-10T03:07:20;13.80;99.90
29207;DHT22;16247;50.840;4.382;2023-05-10T03:09:51;13.70;99.90
29207;DHT22;16247;50.840;4.382;2023-05-10T03:17:29;13.90;99.90
29207;DHT22;16247;50.840;4.382;2023-05-10T03:22:31;13.70;99.90
29207;DHT22;16247;50.840;4.382;2023-05-10T03:25:22;13.70;99.90
29207;DHT22;16247;50.840;4.382;2023-05-10T03:27:57;13.50;99.90
29207;DHT22;16247;50.840;4.382;2023-05-10T03:30:26;13.60;99.90
29207;DHT22;16247;50.840;4.382;2023-05-10T03:32:52;13.60;99.90
29207;DHT22;16247;50.840;4.382;2023-05-10T03:35:18;13.70;99.90
29207;DHT22;16247;50.840;4.382;2023-05-10T03:37:53;13.60;99.90
29207;DHT22;16247;50.840;4.382;2023-05-10T03:40:21;13.60;99.90
29207;DHT22;16247;50.840;4.382;2023-05-10T03:42:46;13.70;99.90
29207;DHT22;16247;50.840;4.382;2023-05-10T03:45:13;13.60;99.90
29207;DHT22;16247;50.840;4.382;2023-05-10T03:47:39;13.70;99.90
29207;DHT22;16247;50.840;4.382;2023-05-10T03:50:12;13.60;99.90
29207;DHT22;16247;50.840;4.382;2023-05-10T03:55:07;13.70;99.90
29207;DHT22;16247;50.840;4.382;2023-05-10T04:00:06;13.80;99.90
29207;DHT22;16247;50.840;4.382;2023-05-10T04:02:33;13.80;99.90
29207;DHT22;16247;50.840;4.382;2023-05-10T04:05:17;13.90;99.90
29207;DHT22;16247;50.840;4.382;2023-05-10T04:11:11;13.90;99.90
29207;DHT22;16247;50.840;4.382;2023-05-10T04:16:18;14.00;99.90
29207;DHT22;16247;50.840;4.382;2023-05-10T04:18:44;14.20;99.90
29207;DHT22;16247;50.840;4.382;2023-05-10T04:21:11;14.20;99.90
29207;DHT22;16247;50.840;4.382;2023-05-10T04:23:57;14.20;99.90
29207;DHT22;16247;50.840;4.382;2023-05-10T04:29:20;14.10;99.90
29207;DHT22;16247;50.840;4.382;2023-05-10T04:31:51;14.00;99.90
29207;DHT22;16247;50.840;4.382;2023-05-10T05:16:56;14.30;99.90
29207;DHT22;16247;50.840;4.382;2023-05-10T05:19:25;14.30;99.90
29207;DHT22;16247;50.840;4.382;2023-05-10T05:21:53;14.10;99.90
29207;DHT22;16247;50.840;4.382;2023-05-10T05:24:28;14.20;99.90
29207;DHT22;16247;50.840;4.382;2023-05-10T05:29:26;14.10;99.90
29207;DHT22;16247;50.840;4.382;2023-05-10T05:32:06;13.90;99.90
29207;DHT22;16247;50.840;4.382;2023-05-10T05:37:31;13.70;99.90
29207;DHT22;16247;50.840;4.382;2023-05-10T05:40:26;13.80;99.90
29207;DHT22;16247;50.840;4.382;2023-05-10T05:42:56;13.80;99.90
29207;DHT22;16247;50.840;4.382;2023-05-10T10:11:44;13.40;99.90
29207;DHT22;16247;50.840;4.382;2023-05-10T12:55:51;17.00;99.90
29207;DHT22;16247;50.840;4.382;2023-05-10T12:58:16;17.30;99.90
29207;DHT22;16247;50.840;4.382;2023-05-10T13:00:42;17.70;99.90
29207;DHT22;16247;50.840;4.382;2023-05-10T13:03:09;17.80;99.90
29207;DHT22;16247;50.840;4.382;2023-05-10T13:05:36;18.10;99.90
29207;DHT22;16247;50.840;4.382;2023-05-10T13:08:01;18.00;99.90
29207;DHT22;16247;50.840;4.382;2023-05-10T13:10:29;18.00;99.90
29207;DHT22;16247;50.840;4.382;2023-05-10T13:12:55;18.00;99.90
29207;DHT22;16247;50.840;4.382;2023-05-10T13:15:20;18.30;99.90
29207;DHT22;16247;50.840;4.382;2023-05-10T13:17:46;18.40;99.90
29207;DHT22;16247;50.840;4.382;2023-05-10T13:20:11;18.30;99.90
29207;DHT22;16247;50.840;4.382;2023-05-10T13:22:37;18.30;99.90
29207;DHT22;16247;50.840;4.382;2023-05-10T13:25:04;18.60;99.90
29207;DHT22;16247;50.840;4.382;2023-05-10T13:27:30;18.40;99.90
29207;DHT22;16247;50.840;4.382;2023-05-10T13:29:56;17.70;99.90
29207;DHT22;16247;50.840;4.382;2023-05-10T13:32:25;17.70;99.90
29207;DHT22;16247;50.840;4.382;2023-05-10T13:34:53;17.50;99.90
29207;DHT22;16247;50.840;4.382;2023-05-10T13:39:57;17.50;99.90
29207;DHT22;16247;50.840;4.382;2023-05-10T13:42:24;17.50;99.90
29207;DHT22;16247;50.840;4.382;2023-05-10T13:44:50;17.50;99.90
29207;DHT22;16247;50.840;4.382;2023-05-10T13:47:17;17.30;99.90
29207;DHT22;16247;50.840;4.382;2023-05-10T13:49:48;17.30;99.90
29207;DHT22;16247;50.840;4.382;2023-05-10T13:52:14;17.30;99.90
29207;DHT22;16247;50.840;4.382;2023-05-10T13:54:42;17.30;99.90
29207;DHT22;16247;50.840;4.382;2023-05-10T13:57:07;17.20;99.90
29207;DHT22;16247;50.840;4.382;2023-05-10T13:59:33;17.40;99.90
29207;DHT22;16247;50.840;4.382;2023-05-10T14:04:29;17.50;99.90
29207;DHT22;16247;50.840;4.382;2023-05-10T14:07:02;17.70;99.90
29207;DHT22;16247;50.840;4.382;2023-05-10T14:09:28;17.80;99.90
29207;DHT22;16247;50.840;4.382;2023-05-10T14:11:57;17.80;99.90
29207;DHT22;16247;50.840;4.382;2023-05-10T14:14:24;17.40;99.90
29207;DHT22;16247;50.840;4.382;2023-05-10T14:16:58;17.30;99.90
29207;DHT22;16247;50.840;4.382;2023-05-10T14:19:44;17.20;99.90
29207;DHT22;16247;50.840;4.382;2023-05-10T14:22:10;17.10;99.90
29207;DHT22;16247;50.840;4.382;2023-05-10T14:24:35;17.10;99.90
29207;DHT22;16247;50.840;4.382;2023-05-10T14:29:32;17.20;99.90
29207;DHT22;16247;50.840;4.382;2023-05-10T14:31:58;17.20;99.90
29207;DHT22;16247;50.840;4.382;2023-05-10T14:34:27;17.40;99.90
29207;DHT22;16247;50.840;4.382;2023-05-10T14:39:22;17.50;99.90
29207;DHT22;16247;50.840;4.382;2023-05-10T14:44:24;17.50;99.90
29207;DHT22;16247;50.840;4.382;2023-05-10T14:46:52;17.40;99.90
29207;DHT22;16247;50.840;4.382;2023-05-10T14:49:18;17.20;99.90
29207;DHT22;16247;50.840;4.382;2023-05-10T14:51:48;16.90;99.90
29207;DHT22;16247;50.840;4.382;2023-05-10T14:54:14;16.60;99.90
29207;DHT22;16247;50.840;4.382;2023-05-10T14:56:47;16.60;99.90
29207;DHT22;16247;50.840;4.382;2023-05-10T14:59:21;16.60;99.90
29207;DHT22;16247;50.840;4.382;2023-05-10T15:01:46;16.40;99.90
29207;DHT22;16247;50.840;4.382;2023-05-10T15:04:12;16.50;99.90
29207;DHT22;16247;50.840;4.382;2023-05-10T15:06:38;16.40;99.90
29207;DHT22;16247;50.840;4.382;2023-05-10T15:09:06;16.30;99.90
29207;DHT22;16247;50.840;4.382;2023-05-10T15:11:32;16.30;99.90
29207;DHT22;16247;50.840;4.382;2023-05-10T15:13:58;16.10;99.90
29207;DHT22;16247;50.840;4.382;2023-05-10T15:16:24;15.80;99.90
29207;DHT22;16247;50.840;4.382;2023-05-10T15:18:52;15.50;99.90
29207;DHT22;16247;50.840;4.382;2023-05-10T15:21:17;15.50;99.90
29207;DHT22;16247;50.840;4.382;2023-05-10T15:23:43;15.50;99.90
29207;DHT22;16247;50.840;4.382;2023-05-10T15:26:12;15.70;99.90
29207;DHT22;16247;50.840;4.382;2023-05-10T15:28:38;15.60;99.90
29207;DHT22;16247;50.840;4.382;2023-05-10T15:31:04;15.70;99.90
29207;DHT22;16247;50.840;4.382;2023-05-10T15:33:31;15.60;99.90
29207;DHT22;16247;50.840;4.382;2023-05-10T15:35:58;15.50;99.90
29207;DHT22;16247;50.840;4.382;2023-05-10T15:38:24;15.40;99.90
29207;DHT22;16247;50.840;4.382;2023-05-10T15:40:52;15.50;99.90
29207;DHT22;16247;50.840;4.382;2023-05-10T15:43:20;15.80;99.90
29207;DHT22;16247;50.840;4.382;2023-05-10T15:45:46;15.80;99.90
29207;DHT22;16247;50.840;4.382;2023-05-10T15:48:13;15.80;99.90
29207;DHT22;16247;50.840;4.382;2023-05-10T15:50:41;15.70;99.90
29207;DHT22;16247;50.840;4.382;2023-05-10T15:53:07;15.80;99.90
29207;DHT22;16247;50.840;4.382;2023-05-10T15:55:40;16.00;99.90
29207;DHT22;16247;50.840;4.382;2023-05-10T15:58:07;16.30;99.90
29207;DHT22;16247;50.840;4.382;2023-05-10T16:00:36;16.30;99.90
29207;DHT22;16247;50.840;4.382;2023-05-10T16:08:39;16.70;99.90
29207;DHT22;16247;50.840;4.382;2023-05-10T16:11:06;16.80;99.90
29207;DHT22;16247;50.840;4.382;2023-05-10T16:13:34;17.00;99.90
29207;DHT22;16247;50.840;4.382;2023-05-10T16:16:04;17.10;99.90
29207;DHT22;16247;50.840;4.382;2023-05-10T16:18:34;17.30;99.90
29207;DHT22;16247;50.840;4.382;2023-05-10T16:23:51;17.30;99.90
29207;DHT22;16247;50.840;4.382;2023-05-10T16:32:19;16.90;99.90
29207;DHT22;16247;50.840;4.382;2023-05-10T16:34:57;17.40;99.90
29207;DHT22;16247;50.840;4.382;2023-05-10T16:37:41;17.40;99.90
29207;DHT22;16247;50.840;4.382;2023-05-10T16:40:46;17.60;99.90
29207;DHT22;16247;50.840;4.382;2023-05-10T16:43:21;17.90;99.90
29207;DHT22;16247;50.840;4.382;2023-05-10T16:46:18;17.30;99.90
29207;DHT22;16247;50.840;4.382;2023-05-10T16:49:10;17.30;99.90
29207;DHT22;16247;50.840;4.382;2023-05-10T16:51:57;17.10;99.90
29207;DHT22;16247;50.840;4.382;2023-05-10T17:10:57;16.90;99.90
29207;DHT22;16247;50.840;4.382;2023-05-10T17:24:04;16.80;99.90
29207;DHT22;16247;50.840;4.382;2023-05-10T17:26:54;16.90;99.90
29207;DHT22;16247;50.840;4.382;2023-05-10T17:32:22;17.00;99.90
29207;DHT22;16247;50.840;4.382;2023-05-10T17:35:50;16.70;99.90
29207;DHT22;16247;50.840;4.382;2023-05-10T17:41:46;16.90;99.90
29207;DHT22;16247;50.840;4.382;2023-05-10T17:47:56;16.70;99.90
29207;DHT22;16247;50.840;4.382;2023-05-10T17:50:48;16.90;99.90
29207;DHT22;16247;50.840;4.382;2023-05-10T18:06:17;16.70;99.90
29207;DHT22;16247;50.840;4.382;2023-05-10T18:49:53;15.50;99.90
29207;DHT22;16247;50.840;4.382;2023-05-10T18:58:56;15.50;99.90
29207;DHT22;16247;50.840;4.382;2023-05-10T19:02:11;15.60;99.90
29207;DHT22;16247;50.840;4.382;2023-05-10T19:04:55;15.50;99.90
29207;DHT22;16247;50.840;4.382;2023-05-10T19:07:27;15.60;99.90
29207;DHT22;16247;50.840;4.382;2023-05-10T19:10:33;15.60;99.90
29207;DHT22;16247;50.840;4.382;2023-05-10T20:07:24;15.80;99.90
29207;DHT22;16247;50.840;4.382;2023-05-10T20:42:47;15.70;99.90
29207;DHT22;16247;50.840;4.382;2023-05-10T20:51:37;16.00;99.90
29207;DHT22;16247;50.840;4.382;2023-05-10T20:54:36;16.00;99.90
29207;DHT22;16247;50.840;4.382;2023-05-10T21:55:19;15.30;99.90
29207;DHT22;16247;50.840;4.382;2023-05-10T23:47:46;14.20;99.90
29207;DHT22;16247;50.840;4.382;2023-05-10T23:57:25;14.30;99.90
